createdAt,value
2023-03-11T00:00:33.659Z,100.00
2023-03-11T00:03:01.972Z,100.00
2023-03-11T00:05:31.871Z,100.00
2023-03-11T00:07:58.399Z,100.00
2023-03-11T00:10:30.123Z,100.00
2023-03-11T00:12:57.665Z,100.00
2023-03-11T00:15:24.750Z,100.00
2023-03-11T00:17:51.978Z,100.00
2023-03-11T00:20:29.440Z,100.00
2023-03-11T00:22:57.025Z,100.00
2023-03-11T00:25:26.007Z,100.00
2023-03-11T00:27:52.469Z,100.00
2023-03-11T00:30:20.185Z,100.00
2023-03-11T00:32:52.163Z,100.00
2023-03-11T00:35:21.547Z,100.00
2023-03-11T00:37:48.450Z,100.00
2023-03-11T00:40:19.239Z,100.00
2023-03-11T00:42:46.282Z,100.00
2023-03-11T00:45:13.682Z,100.00
2023-03-11T00:47:40.238Z,100.00
2023-03-11T00:50:09.760Z,100.00
2023-03-11T00:52:36.273Z,100.00
2023-03-11T00:55:02.972Z,100.00
2023-03-11T00:57:30.373Z,100.00
2023-03-11T00:59:56.852Z,100.00
2023-03-11T01:02:24.536Z,100.00
2023-03-11T01:04:58.137Z,100.00
2023-03-11T01:07:24.687Z,100.00
2023-03-11T01:09:51.117Z,100.00
2023-03-11T01:12:17.572Z,100.00
2023-03-11T01:14:44.083Z,100.00
2023-03-11T01:17:10.557Z,100.00
2023-03-11T01:19:37.008Z,100.00
2023-03-11T01:22:03.800Z,100.00
2023-03-11T01:24:30.334Z,100.00
2023-03-11T01:26:56.986Z,100.00
2023-03-11T01:29:24.539Z,100.00
2023-03-11T01:31:50.980Z,100.00
2023-03-11T01:34:17.509Z,100.00
2023-03-11T01:36:43.942Z,100.00
2023-03-11T01:39:10.449Z,100.00
2023-03-11T01:41:37.022Z,100.00
2023-03-11T01:44:04.916Z,100.00
2023-03-11T01:46:59.621Z,100.00
2023-03-11T01:49:30.468Z,100.00
2023-03-11T01:52:03.709Z,100.00
2023-03-11T01:54:41.371Z,100.00
2023-03-11T01:57:13.280Z,100.00
2023-03-11T01:59:46.932Z,100.00
2023-03-11T02:02:23.017Z,100.00
2023-03-11T02:04:50.790Z,100.00
2023-03-11T02:07:18.034Z,100.00
2023-03-11T02:09:45.997Z,100.00
2023-03-11T02:12:14.711Z,100.00
2023-03-11T02:14:48.095Z,100.00
2023-03-11T02:17:15.122Z,100.00
2023-03-11T02:20:08.764Z,100.00
2023-03-11T02:22:35.996Z,100.00
2023-03-11T02:25:23.036Z,100.00
2023-03-11T02:27:53.290Z,100.00
2023-03-11T02:30:23.902Z,100.00
2023-03-11T02:32:51.187Z,100.00
2023-03-11T02:35:18.556Z,100.00
2023-03-11T02:37:50.431Z,100.00
2023-03-11T02:40:23.000Z,100.00
2023-03-11T02:42:55.141Z,100.00
2023-03-11T02:45:25.739Z,100.00
2023-03-11T02:47:56.752Z,100.00
2023-03-11T02:50:25.432Z,100.00
2023-03-11T02:52:52.115Z,100.00
2023-03-11T02:55:20.313Z,100.00
2023-03-11T02:57:49.944Z,100.00
2023-03-11T03:00:18.353Z,100.00
2023-03-11T03:02:54.992Z,100.00
2023-03-11T03:05:22.343Z,100.00
2023-03-11T03:07:50.854Z,100.00
2023-03-11T03:10:22.342Z,100.00
2023-03-11T03:12:49.339Z,100.00
2023-03-11T03:15:16.400Z,100.00
2023-03-11T03:17:44.681Z,100.00
2023-03-11T03:20:12.963Z,100.00
2023-03-11T03:22:43.314Z,100.00
2023-03-11T03:25:12.258Z,100.00
2023-03-11T03:27:39.249Z,100.00
2023-03-11T03:30:09.477Z,100.00
2023-03-11T03:32:37.171Z,100.00
2023-03-11T03:35:06.028Z,100.00
2023-03-11T03:37:51.699Z,100.00
2023-03-11T03:40:18.478Z,100.00
2023-03-11T03:42:44.987Z,100.00
2023-03-11T03:45:11.978Z,100.00
2023-03-11T03:47:38.636Z,100.00
2023-03-11T03:50:08.673Z,100.00
2023-03-11T03:52:37.302Z,100.00
2023-03-11T03:55:05.583Z,100.00
2023-03-11T03:57:32.421Z,100.00
2023-03-11T03:59:58.881Z,100.00
2023-03-11T04:02:26.031Z,100.00
2023-03-11T04:04:53.833Z,100.00
2023-03-11T04:07:20.349Z,100.00
2023-03-11T04:09:47.046Z,100.00
2023-03-11T04:12:17.400Z,100.00
2023-03-11T04:14:44.742Z,100.00
2023-03-11T04:17:12.669Z,100.00
2023-03-11T04:19:40.250Z,100.00
2023-03-11T04:22:07.676Z,100.00
2023-03-11T04:24:34.242Z,100.00
2023-03-11T04:27:01.326Z,100.00
2023-03-11T04:29:28.101Z,100.00
2023-03-11T04:31:55.539Z,100.00
2023-03-11T04:34:22.346Z,100.00
2023-03-11T04:36:53.122Z,100.00
2023-03-11T04:39:21.999Z,100.00
2023-03-11T04:41:48.684Z,100.00
2023-03-11T04:44:19.526Z,100.00
2023-03-11T04:46:46.332Z,100.00
2023-03-11T04:49:12.804Z,100.00
2023-03-11T04:51:40.404Z,100.00
2023-03-11T04:54:07.759Z,100.00
2023-03-11T04:56:34.464Z,100.00
2023-03-11T04:59:01.427Z,100.00
2023-03-11T05:01:29.970Z,100.00
2023-03-11T05:03:58.504Z,100.00
2023-03-11T05:06:25.236Z,100.00
2023-03-11T05:08:52.042Z,100.00
2023-03-11T05:11:18.813Z,100.00
2023-03-11T05:13:47.392Z,100.00
2023-03-11T05:16:14.298Z,100.00
2023-03-11T05:18:40.973Z,100.00
2023-03-11T05:21:07.416Z,100.00
2023-03-11T05:23:36.414Z,100.00
2023-03-11T05:26:03.142Z,100.00
2023-03-11T05:28:31.474Z,100.00
2023-03-11T05:30:58.268Z,100.00
2023-03-11T05:33:25.249Z,100.00
2023-03-11T05:35:53.445Z,100.00
2023-03-11T05:38:20.634Z,100.00
2023-03-11T05:40:47.546Z,100.00
2023-03-11T05:43:14.104Z,100.00
2023-03-11T05:45:43.521Z,100.00
2023-03-11T05:48:10.673Z,100.00
2023-03-11T05:50:38.030Z,100.00
2023-03-11T05:53:04.946Z,100.00
2023-03-11T05:55:31.931Z,100.00
2023-03-11T05:57:59.397Z,100.00
2023-03-11T06:00:29.245Z,100.00
2023-03-11T06:02:58.269Z,100.00
2023-03-11T06:05:24.783Z,100.00
2023-03-11T06:07:53.202Z,100.00
2023-03-11T06:10:21.814Z,100.00
2023-03-11T06:12:48.318Z,100.00
2023-03-11T06:15:24.723Z,100.00
2023-03-11T06:17:52.594Z,100.00
2023-03-11T06:20:19.800Z,100.00
2023-03-11T06:22:49.725Z,100.00
2023-03-11T06:25:16.896Z,100.00
2023-03-11T06:27:48.604Z,99.98
2023-03-11T06:30:15.474Z,99.60
2023-03-11T06:32:50.212Z,99.02
2023-03-11T06:35:16.704Z,98.43
2023-03-11T06:37:43.238Z,98.17
2023-03-11T06:40:11.304Z,98.42
2023-03-11T06:42:38.130Z,99.09
2023-03-11T06:45:07.542Z,98.74
2023-03-11T06:47:34.348Z,98.42
2023-03-11T06:50:06.361Z,98.13
2023-03-11T06:52:33.622Z,98.38
2023-03-11T06:55:00.204Z,97.89
2023-03-11T06:57:29.360Z,97.68
2023-03-11T06:59:57.405Z,97.96
2023-03-11T07:02:24.636Z,97.44
2023-03-11T07:04:51.201Z,97.26
2023-03-11T07:07:20.145Z,97.19
2023-03-11T07:09:46.850Z,96.52
2023-03-11T07:12:14.936Z,96.17
2023-03-11T07:14:41.725Z,95.49
2023-03-11T07:17:08.225Z,95.62
2023-03-11T07:19:41.061Z,95.55
2023-03-11T07:22:07.484Z,96.23
2023-03-11T07:24:33.876Z,96.07
2023-03-11T07:27:00.352Z,96.55
2023-03-11T07:29:27.071Z,96.10
2023-03-11T07:31:53.552Z,96.29
2023-03-11T07:34:20.172Z,95.38
2023-03-11T07:36:46.625Z,95.85
2023-03-11T07:39:16.565Z,95.23
2023-03-11T07:41:43.216Z,95.86
2023-03-11T07:44:12.216Z,95.59
2023-03-11T07:46:38.931Z,95.58
2023-03-11T07:49:05.598Z,95.33
2023-03-11T07:51:35.226Z,95.11
2023-03-11T07:54:02.178Z,94.54
2023-03-11T07:56:32.065Z,93.94
2023-03-11T07:59:00.198Z,93.00
2023-03-11T08:01:30.497Z,91.72
2023-03-11T08:03:58.734Z,90.63
2023-03-11T08:06:31.286Z,90.64
2023-03-11T08:08:59.252Z,91.00
2023-03-11T08:11:26.285Z,90.49
2023-03-11T08:13:53.872Z,89.70
2023-03-11T08:16:22.460Z,89.94
2023-03-11T08:18:51.085Z,89.23
2023-03-11T08:21:23.435Z,89.70
2023-03-11T08:23:50.610Z,89.22
2023-03-11T08:26:20.388Z,88.84
2023-03-11T08:28:46.948Z,89.64
2023-03-11T08:31:19.267Z,88.69
2023-03-11T08:33:49.844Z,88.91
2023-03-11T08:36:17.386Z,88.57
2023-03-11T08:38:43.839Z,89.79
2023-03-11T08:41:10.431Z,89.60
2023-03-11T08:43:36.880Z,88.40
2023-03-11T08:46:07.148Z,87.31
2023-03-11T08:48:34.263Z,84.26
2023-03-11T08:51:00.741Z,84.07
2023-03-11T08:53:27.366Z,83.37
2023-03-11T08:55:53.858Z,84.02
2023-03-11T08:58:20.532Z,83.89
2023-03-11T09:00:47.178Z,83.37
2023-03-11T09:03:13.695Z,84.26
2023-03-11T09:05:40.461Z,83.21
2023-03-11T09:08:07.158Z,84.28
2023-03-11T09:10:33.698Z,83.50
2023-03-11T09:13:00.321Z,82.47
2023-03-11T09:15:29.293Z,82.75
2023-03-11T09:17:56.801Z,83.94
2023-03-11T09:20:23.456Z,84.06
2023-03-11T09:22:50.159Z,84.53
2023-03-11T09:25:16.791Z,85.25
2023-03-11T09:27:43.251Z,85.82
2023-03-11T09:30:10.647Z,85.80
2023-03-11T09:32:37.333Z,85.98
2023-03-11T09:35:04.464Z,85.57
2023-03-11T09:37:31.036Z,85.61
2023-03-11T09:39:57.520Z,86.11
2023-03-11T09:42:35.772Z,86.41
2023-03-11T09:45:08.281Z,86.32
2023-03-11T09:47:45.923Z,85.36
2023-03-11T09:50:20.252Z,86.07
2023-03-11T09:53:08.786Z,85.61
2023-03-11T09:55:42.203Z,85.43
2023-03-11T09:58:36.597Z,84.90
2023-03-11T10:01:12.017Z,83.97
2023-03-11T10:03:40.048Z,83.83
2023-03-11T10:06:14.734Z,82.09
2023-03-11T10:09:13.509Z,82.32
2023-03-11T10:12:10.727Z,81.61
2023-03-11T10:15:05.989Z,81.72
2023-03-11T10:17:56.162Z,81.62
2023-03-11T10:20:30.056Z,82.10
2023-03-11T10:23:11.076Z,81.39
2023-03-11T10:25:52.451Z,80.56
2023-03-11T10:28:22.193Z,78.26
2023-03-11T10:30:56.323Z,78.24
2023-03-11T10:33:39.992Z,79.15
2023-03-11T10:36:12.553Z,79.15
2023-03-11T10:38:49.171Z,77.27
2023-03-11T10:41:21.216Z,76.61
2023-03-11T10:44:13.669Z,77.49
2023-03-11T10:46:40.108Z,76.75
2023-03-11T10:49:17.892Z,77.75
2023-03-11T10:51:47.193Z,76.91
2023-03-11T10:54:35.328Z,75.69
2023-03-11T10:57:04.709Z,75.32
2023-03-11T10:59:46.145Z,75.14
2023-03-11T11:02:33.693Z,74.18
2023-03-11T11:05:18.168Z,73.92
2023-03-11T11:07:53.040Z,74.44
2023-03-11T11:10:25.574Z,74.17
2023-03-11T11:12:57.859Z,72.25
2023-03-11T11:15:38.014Z,73.25
2023-03-11T11:18:14.699Z,73.27
2023-03-11T11:21:15.993Z,73.23
2023-03-11T11:23:52.594Z,73.12
2023-03-11T11:26:23.040Z,72.79
2023-03-11T11:29:12.291Z,73.22
2023-03-11T11:31:41.171Z,71.51
2023-03-11T11:34:29.269Z,71.75
2023-03-11T11:37:02.336Z,72.13
2023-03-11T11:39:32.934Z,70.85
2023-03-11T11:42:01.493Z,71.00
2023-03-11T11:44:33.761Z,69.84
2023-03-11T11:47:18.975Z,70.52
2023-03-11T11:49:55.338Z,70.86
2023-03-11T11:52:30.650Z,69.59
2023-03-11T11:55:04.999Z,69.15
2023-03-11T11:57:32.227Z,69.58
2023-03-11T11:59:58.760Z,70.04
2023-03-11T12:02:41.840Z,69.26
2023-03-11T12:05:11.245Z,68.36
2023-03-11T12:07:49.196Z,69.52
2023-03-11T12:10:28.585Z,68.00
2023-03-11T12:13:14.403Z,68.16
2023-03-11T12:15:46.928Z,68.21
2023-03-11T12:18:20.537Z,66.58
2023-03-11T12:20:55.072Z,66.66
2023-03-11T12:23:50.192Z,66.11
2023-03-11T12:26:21.295Z,66.24
2023-03-11T12:28:56.585Z,64.28
2023-03-11T12:31:26.698Z,64.99
2023-03-11T12:34:03.109Z,65.98
2023-03-11T12:36:35.021Z,66.07
2023-03-11T12:39:07.234Z,66.14
2023-03-11T12:41:39.912Z,65.24
2023-03-11T12:44:28.766Z,66.27
2023-03-11T12:46:58.423Z,65.83
2023-03-11T12:49:32.747Z,65.73
2023-03-11T12:52:11.495Z,65.69
2023-03-11T12:55:08.083Z,65.86
2023-03-11T12:57:48.159Z,65.31
2023-03-11T13:00:22.825Z,66.03
2023-03-11T13:02:58.648Z,65.39
2023-03-11T13:06:08.413Z,66.58
2023-03-11T13:08:44.645Z,65.24
2023-03-11T13:11:29.856Z,66.37
2023-03-11T13:14:14.820Z,65.81
2023-03-11T13:16:42.822Z,66.33
2023-03-11T13:19:27.839Z,65.77
2023-03-11T13:21:55.650Z,67.50
2023-03-11T13:24:22.065Z,66.23
2023-03-11T13:26:48.442Z,66.23
2023-03-11T13:29:52.612Z,66.07
2023-03-11T13:32:32.005Z,65.65
2023-03-11T13:35:17.974Z,66.07
2023-03-11T13:38:13.192Z,65.71
2023-03-11T13:40:42.524Z,67.09
2023-03-11T13:43:19.892Z,64.61
2023-03-11T13:45:53.142Z,65.66
2023-03-11T13:48:28.898Z,64.37
2023-03-11T13:51:30.673Z,64.98
2023-03-11T13:54:02.503Z,65.10
2023-03-11T13:56:33.005Z,63.98
2023-03-11T13:59:17.379Z,63.45
2023-03-11T14:01:51.842Z,63.21
2023-03-11T14:04:34.356Z,61.21
2023-03-11T14:07:11.889Z,61.20
2023-03-11T14:09:38.797Z,63.05
2023-03-11T14:12:10.038Z,62.46
2023-03-11T14:14:53.211Z,63.24
2023-03-11T14:17:20.984Z,63.30
2023-03-11T14:20:11.778Z,62.06
2023-03-11T14:22:38.279Z,62.98
2023-03-11T14:25:09.042Z,63.04
2023-03-11T14:27:38.485Z,63.51
2023-03-11T14:30:06.728Z,62.98
2023-03-11T14:32:34.720Z,62.48
2023-03-11T14:35:03.949Z,62.49
2023-03-11T14:37:38.374Z,63.36
2023-03-11T14:40:28.162Z,64.09
2023-03-11T14:42:58.915Z,64.85
2023-03-11T14:45:29.846Z,66.15
2023-03-11T14:48:03.364Z,65.50
2023-03-11T14:50:33.583Z,65.35
2023-03-11T14:53:12.371Z,66.73
2023-03-11T14:55:43.907Z,64.25
2023-03-11T14:58:18.565Z,64.10
2023-03-11T15:00:59.603Z,64.38
2023-03-11T15:03:32.164Z,64.26
2023-03-11T15:06:15.329Z,64.80
2023-03-11T15:08:48.352Z,64.85
2023-03-11T15:11:15.041Z,65.72
2023-03-11T15:13:44.080Z,65.12
2023-03-11T15:16:37.501Z,63.83
2023-03-11T15:19:26.075Z,63.12
2023-03-11T15:21:54.483Z,64.11
2023-03-11T15:24:32.036Z,63.88
2023-03-11T15:27:04.718Z,64.81
2023-03-11T15:29:33.756Z,65.16
2023-03-11T15:32:00.681Z,65.14
2023-03-11T15:34:32.046Z,65.90
2023-03-11T15:37:19.240Z,64.56
2023-03-11T15:39:51.080Z,64.86
2023-03-11T15:42:20.587Z,64.98
2023-03-11T15:45:15.653Z,63.05
2023-03-11T15:47:42.793Z,63.18
2023-03-11T15:50:24.189Z,63.02
2023-03-11T15:52:56.906Z,63.17
2023-03-11T15:55:25.382Z,64.00
2023-03-11T15:58:00.771Z,64.93
2023-03-11T16:00:27.276Z,64.83
2023-03-11T16:02:54.612Z,64.71
2023-03-11T16:05:23.725Z,64.46
2023-03-11T16:07:50.935Z,64.21
2023-03-11T16:10:21.129Z,64.10
2023-03-11T16:12:48.178Z,64.46
2023-03-11T16:15:28.917Z,65.41
2023-03-11T16:17:59.047Z,65.88
2023-03-11T16:20:29.202Z,65.82
2023-03-11T16:22:58.672Z,64.75
2023-03-11T16:25:36.135Z,65.98
2023-03-11T16:28:03.253Z,66.64
2023-03-11T16:30:31.507Z,66.71
2023-03-11T16:32:58.634Z,66.45
2023-03-11T16:35:25.670Z,66.29
2023-03-11T16:37:52.538Z,65.29
2023-03-11T16:40:21.729Z,66.01
2023-03-11T16:42:49.085Z,66.78
2023-03-11T16:45:18.090Z,67.08
2023-03-11T16:47:44.567Z,66.38
2023-03-11T16:50:11.613Z,65.99
2023-03-11T16:52:38.468Z,66.38
2023-03-11T16:55:05.553Z,66.44
2023-03-11T16:57:32.148Z,66.20
2023-03-11T16:59:58.882Z,66.79
2023-03-11T17:02:25.608Z,66.98
2023-03-11T17:04:52.135Z,67.28
2023-03-11T17:07:18.670Z,67.99
2023-03-11T17:09:45.309Z,68.03
2023-03-11T17:12:15.570Z,67.70
2023-03-11T17:14:42.364Z,67.95
2023-03-11T17:17:09.223Z,69.26
2023-03-11T17:19:35.809Z,69.06
2023-03-11T17:22:05.108Z,69.21
2023-03-11T17:24:32.401Z,69.76
2023-03-11T17:26:58.940Z,70.06
2023-03-11T17:29:25.583Z,70.21
2023-03-11T17:31:52.091Z,70.61
2023-03-11T17:34:18.578Z,71.20
2023-03-11T17:36:45.085Z,71.32
2023-03-11T17:39:11.548Z,72.60
2023-03-11T17:41:38.065Z,72.56
2023-03-11T17:44:04.939Z,72.62
2023-03-11T17:46:32.053Z,73.18
2023-03-11T17:48:59.379Z,73.57
2023-03-11T17:51:26.725Z,73.23
2023-03-11T17:53:55.416Z,73.51
2023-03-11T17:56:22.777Z,73.90
2023-03-11T17:58:50.475Z,74.50
2023-03-11T18:01:20.616Z,75.14
2023-03-11T18:03:47.348Z,75.90
2023-03-11T18:06:14.980Z,76.17
2023-03-11T18:08:41.858Z,76.68
2023-03-11T18:11:13.653Z,77.41
2023-03-11T18:13:40.889Z,77.41
2023-03-11T18:16:10.977Z,77.52
2023-03-11T18:18:37.817Z,78.41
2023-03-11T18:21:06.254Z,78.45
2023-03-11T18:23:34.079Z,78.62
2023-03-11T18:26:03.349Z,78.98
2023-03-11T18:28:30.045Z,79.02
2023-03-11T18:31:05.550Z,79.42
2023-03-11T18:33:32.107Z,79.28
2023-03-11T18:35:58.792Z,80.24
2023-03-11T18:38:25.490Z,79.60
2023-03-11T18:40:58.189Z,80.12
2023-03-11T18:43:25.418Z,80.27
2023-03-11T18:45:51.948Z,80.65
2023-03-11T18:48:18.434Z,80.46
2023-03-11T18:50:51.486Z,80.34
2023-03-11T18:53:18.149Z,80.20
2023-03-11T18:55:44.581Z,80.52
2023-03-11T18:58:11.220Z,80.73
2023-03-11T19:00:37.737Z,80.88
2023-03-11T19:03:04.209Z,81.10
2023-03-11T19:05:30.771Z,80.46
2023-03-11T19:07:57.323Z,80.62
2023-03-11T19:10:23.752Z,80.49
2023-03-11T19:12:50.761Z,81.53
2023-03-11T19:15:17.802Z,81.23
2023-03-11T19:17:46.634Z,81.14
2023-03-11T19:20:19.124Z,81.25
2023-03-11T19:22:45.578Z,81.46
2023-03-11T19:25:12.048Z,82.19
2023-03-11T19:27:40.140Z,81.84
2023-03-11T19:30:09.758Z,81.84
2023-03-11T19:32:36.255Z,82.40
2023-03-11T19:35:02.728Z,82.16
2023-03-11T19:37:30.981Z,81.30
2023-03-11T19:39:58.038Z,81.73
2023-03-11T19:42:25.980Z,81.99
2023-03-11T19:44:54.252Z,81.84
2023-03-11T19:47:20.698Z,81.37
2023-03-11T19:49:47.190Z,81.87
2023-03-11T19:52:13.733Z,81.35
2023-03-11T19:54:40.175Z,81.81
2023-03-11T19:57:06.641Z,81.59
2023-03-11T19:59:34.545Z,81.71
2023-03-11T20:02:01.706Z,81.56
2023-03-11T20:04:28.986Z,81.72
2023-03-11T20:06:55.997Z,80.99
2023-03-11T20:09:22.644Z,80.98
2023-03-11T20:11:49.075Z,81.22
2023-03-11T20:14:15.614Z,81.28
2023-03-11T20:16:42.190Z,81.77
2023-03-11T20:19:08.833Z,82.32
2023-03-11T20:21:39.262Z,82.13
2023-03-11T20:24:06.680Z,82.18
2023-03-11T20:26:33.383Z,81.90
2023-03-11T20:29:00.193Z,82.25
2023-03-11T20:31:28.303Z,82.17
2023-03-11T20:33:56.057Z,82.36
2023-03-11T20:36:25.748Z,81.46
2023-03-11T20:38:53.753Z,81.47
2023-03-11T20:41:23.157Z,81.56
2023-03-11T20:43:54.978Z,80.89
2023-03-11T20:46:21.972Z,81.95
2023-03-11T20:48:48.531Z,81.55
2023-03-11T20:51:19.469Z,82.02
2023-03-11T20:53:47.203Z,82.47
2023-03-11T20:56:16.760Z,82.31
2023-03-11T20:58:44.528Z,81.84
2023-03-11T21:01:28.714Z,81.70
2023-03-11T21:04:01.410Z,81.79
2023-03-11T21:06:47.229Z,81.43
2023-03-11T21:09:14.656Z,81.64
2023-03-11T21:11:41.596Z,81.93
2023-03-11T21:14:08.764Z,81.78
2023-03-11T21:16:37.202Z,81.98
2023-03-11T21:19:08.498Z,82.06
2023-03-11T21:21:35.300Z,82.15
2023-03-11T21:24:02.227Z,81.70
2023-03-11T21:26:28.795Z,81.97
2023-03-11T21:28:55.946Z,82.05
2023-03-11T21:31:25.968Z,81.24
2023-03-11T21:33:56.863Z,81.80
2023-03-11T21:36:24.077Z,81.58
2023-03-11T21:38:51.474Z,81.86
2023-03-11T21:41:21.231Z,81.92
2023-03-11T21:43:48.122Z,81.38
2023-03-11T21:46:17.861Z,81.59
2023-03-11T21:48:45.235Z,81.30
2023-03-11T21:51:12.178Z,82.21
2023-03-11T21:53:38.878Z,82.19
2023-03-11T21:56:05.834Z,81.22
2023-03-11T21:58:33.469Z,81.62
2023-03-11T22:01:00.667Z,81.21
2023-03-11T22:03:28.137Z,81.69
2023-03-11T22:05:58.935Z,81.59
2023-03-11T22:08:26.097Z,79.84
2023-03-11T22:10:52.910Z,78.76
2023-03-11T22:13:19.638Z,78.73
2023-03-11T22:15:48.661Z,78.56
2023-03-11T22:18:15.133Z,77.67
2023-03-11T22:20:42.623Z,77.76
2023-03-11T22:23:09.658Z,77.98
2023-03-11T22:25:36.861Z,78.16
2023-03-11T22:28:04.181Z,78.04
2023-03-11T22:30:30.778Z,77.43
2023-03-11T22:32:57.259Z,77.82
2023-03-11T22:35:23.702Z,77.83
2023-03-11T22:37:50.203Z,78.05
2023-03-11T22:40:16.674Z,78.39
2023-03-11T22:42:43.222Z,78.78
2023-03-11T22:45:10.076Z,79.41
2023-03-11T22:47:36.627Z,78.57
2023-03-11T22:50:04.078Z,78.58
2023-03-11T22:52:30.706Z,78.15
2023-03-11T22:54:57.455Z,78.28
2023-03-11T22:57:24.149Z,78.05
2023-03-11T22:59:50.543Z,78.75
2023-03-11T23:02:16.961Z,78.44
2023-03-11T23:04:45.729Z,78.48
2023-03-11T23:07:12.759Z,77.47
2023-03-11T23:10:12.690Z,77.52
2023-03-11T23:12:39.565Z,77.35
2023-03-11T23:18:00.101Z,77.05
2023-03-11T23:20:27.148Z,77.24
2023-03-11T23:22:53.643Z,77.42
2023-03-11T23:25:20.200Z,77.49
2023-03-11T23:27:46.953Z,77.07
2023-03-11T23:30:16.246Z,76.97
2023-03-11T23:32:43.825Z,77.78
2023-03-11T23:35:11.323Z,78.08
2023-03-11T23:37:38.476Z,77.86
2023-03-11T23:40:07.107Z,78.06
2023-03-11T23:42:35.140Z,78.62
2023-03-11T23:45:01.886Z,78.42
2023-03-11T23:47:28.712Z,79.59
2023-03-11T23:49:55.171Z,79.44
2023-03-11T23:52:21.739Z,79.48
2023-03-11T23:54:48.236Z,79.30
2023-03-11T23:57:14.682Z,79.18
2023-03-11T23:59:41.130Z,78.64
